createdAt,value
2018-08-25T00:00:21.395Z,25.70
2018-08-25T00:01:00.326Z,25.70
2018-08-25T00:01:38.863Z,25.70
2018-08-25T00:02:17.083Z,25.80
2018-08-25T00:02:55.388Z,25.80
2018-08-25T00:03:33.737Z,25.80
2018-08-25T00:04:12.084Z,25.80
2018-08-25T00:04:50.471Z,25.70
2018-08-25T00:05:29.303Z,25.60
2018-08-25T00:06:07.831Z,25.60
2018-08-25T00:06:47.167Z,25.60
2018-08-25T00:07:25.540Z,25.60
2018-08-25T00:08:03.834Z,25.60
2018-08-25T00:08:42.222Z,25.60
2018-08-25T00:09:20.459Z,25.70
2018-08-25T00:09:59.356Z,25.70
2018-08-25T00:10:37.877Z,25.70
2018-08-25T00:11:17.477Z,25.70
2018-08-25T00:11:55.917Z,25.80
2018-08-25T00:12:34.157Z,25.80
2018-08-25T00:13:12.445Z,25.70
2018-08-25T00:13:51.418Z,25.60
2018-08-25T00:14:30.430Z,25.60
2018-08-25T00:15:08.538Z,25.60
2018-08-25T00:15:47.525Z,25.60
2018-08-25T00:16:25.655Z,25.60
2018-08-25T00:17:03.722Z,25.70
2018-08-25T00:17:41.825Z,25.70
2018-08-25T00:18:21.505Z,25.70
2018-08-25T00:19:00.117Z,25.80
2018-08-25T00:19:38.210Z,25.80
2018-08-25T00:20:16.756Z,25.80
2018-08-25T00:20:54.729Z,25.80
2018-08-25T00:21:32.683Z,25.80
2018-08-25T00:22:10.722Z,25.70
2018-08-25T00:22:49.162Z,25.60
2018-08-25T00:23:27.100Z,25.50
2018-08-25T00:24:05.103Z,25.50
2018-08-25T00:24:43.122Z,25.50
2018-08-25T00:25:21.099Z,25.50
2018-08-25T00:25:58.859Z,25.60
2018-08-25T00:26:36.724Z,25.60
2018-08-25T00:27:15.068Z,25.60
2018-08-25T00:27:53.096Z,25.70
2018-08-25T00:28:30.976Z,25.70
2018-08-25T00:29:08.979Z,25.80
2018-08-25T00:29:48.147Z,25.80
2018-08-25T00:30:30.143Z,25.70
2018-08-25T00:31:12.181Z,25.60
2018-08-25T00:31:51.334Z,25.60
2018-08-25T00:32:29.335Z,25.60
2018-08-25T00:33:07.650Z,25.60
2018-08-25T00:33:45.680Z,25.60
2018-08-25T00:34:24.685Z,25.70
2018-08-25T00:35:02.618Z,25.70
2018-08-25T00:35:40.856Z,25.80
2018-08-25T00:36:19.383Z,25.80
2018-08-25T00:36:57.232Z,25.80
2018-08-25T00:37:35.118Z,25.80
2018-08-25T00:38:13.227Z,25.80
2018-08-25T00:38:51.124Z,25.80
2018-08-25T00:39:28.976Z,25.70
2018-08-25T00:40:08.157Z,25.60
2018-08-25T00:40:46.503Z,25.50
2018-08-25T00:41:24.423Z,25.50
2018-08-25T00:42:02.319Z,25.50
2018-08-25T00:42:40.219Z,25.60
2018-08-25T00:43:18.211Z,25.60
2018-08-25T00:43:56.176Z,25.60
2018-08-25T00:44:34.251Z,25.70
2018-08-25T00:45:12.115Z,25.70
2018-08-25T00:45:50.147Z,25.70
2018-08-25T00:46:28.092Z,25.80
2018-08-25T00:47:05.987Z,25.80
2018-08-25T00:47:44.010Z,25.80
2018-08-25T00:48:22.969Z,25.70
2018-08-25T00:49:02.153Z,25.60
2018-08-25T00:49:40.127Z,25.60
2018-08-25T00:50:18.059Z,25.60
2018-08-25T00:50:55.982Z,25.70
2018-08-25T00:51:33.932Z,25.70
2018-08-25T00:52:11.950Z,25.70
2018-08-25T00:52:49.891Z,25.70
2018-08-25T00:53:29.724Z,25.80
2018-08-25T00:54:07.719Z,25.80
2018-08-25T00:54:45.745Z,25.80
2018-08-25T00:55:23.791Z,25.80
2018-08-25T00:56:01.682Z,25.80
2018-08-25T00:56:39.599Z,25.80
2018-08-25T00:57:18.079Z,25.70
2018-08-25T00:57:56.453Z,25.60
2018-08-25T00:58:34.597Z,25.60
2018-08-25T00:59:12.659Z,25.60
2018-08-25T00:59:50.699Z,25.60
2018-08-25T01:00:29.159Z,25.60
2018-08-25T01:01:07.342Z,25.70
2018-08-25T01:01:45.675Z,25.70
2018-08-25T01:02:25.464Z,25.80
2018-08-25T01:03:03.421Z,25.80
2018-08-25T01:03:41.497Z,25.80
2018-08-25T01:04:19.482Z,25.80
2018-08-25T01:04:58.403Z,25.80
2018-08-25T01:05:36.476Z,25.80
2018-08-25T01:06:15.091Z,25.70
2018-08-25T01:06:54.414Z,25.60
2018-08-25T01:07:32.513Z,25.60
2018-08-25T01:08:10.914Z,25.60
2018-08-25T01:08:49.154Z,25.70
2018-08-25T01:09:27.323Z,25.70
2018-08-25T01:10:05.442Z,25.80
2018-08-25T01:10:43.691Z,25.80
2018-08-25T01:11:21.878Z,25.80
2018-08-25T01:12:00.125Z,25.80
2018-08-25T01:12:38.280Z,25.90
2018-08-25T01:13:16.494Z,25.90
2018-08-25T01:13:54.767Z,25.90
2018-08-25T01:14:32.916Z,25.80
2018-08-25T01:15:11.803Z,25.70
2018-08-25T01:15:50.239Z,25.60
2018-08-25T01:16:28.741Z,25.60
2018-08-25T01:17:07.312Z,25.60
2018-08-25T01:17:45.800Z,25.60
2018-08-25T01:18:24.219Z,25.60
2018-08-25T01:19:03.688Z,25.70
2018-08-25T01:19:43.514Z,25.70
2018-08-25T01:20:22.133Z,25.70
2018-08-25T01:21:00.659Z,25.80
2018-08-25T01:21:39.187Z,25.80
2018-08-25T01:22:17.790Z,25.80
2018-08-25T01:22:56.322Z,25.80
2018-08-25T01:23:35.224Z,25.80
2018-08-25T01:24:14.211Z,25.60
2018-08-25T01:24:52.752Z,25.60
2018-08-25T01:25:31.497Z,25.60
2018-08-25T01:26:10.065Z,25.60
2018-08-25T01:26:48.586Z,25.60
2018-08-25T01:27:27.318Z,25.70
2018-08-25T01:28:06.295Z,25.70
2018-08-25T01:28:44.833Z,25.70
2018-08-25T01:29:23.353Z,25.80
2018-08-25T01:30:02.768Z,25.80
2018-08-25T01:30:41.411Z,25.80
2018-08-25T01:31:19.971Z,25.80
2018-08-25T01:31:59.041Z,25.80
2018-08-25T01:32:38.079Z,25.80
2018-08-25T01:33:16.451Z,25.60
2018-08-25T01:33:54.738Z,25.60
2018-08-25T01:34:33.103Z,25.50
2018-08-25T01:35:11.640Z,25.50
2018-08-25T01:35:49.896Z,25.60
2018-08-25T01:36:29.065Z,25.60
2018-08-25T01:37:07.646Z,25.70
2018-08-25T01:37:45.800Z,25.70
2018-08-25T01:38:23.826Z,25.80
2018-08-25T01:39:02.770Z,25.80
2018-08-25T01:39:40.826Z,25.80
2018-08-25T01:40:18.947Z,25.90
2018-08-25T01:40:58.351Z,25.90
2018-08-25T01:41:36.771Z,25.80
2018-08-25T01:42:14.742Z,25.70
2018-08-25T01:42:52.587Z,25.70
2018-08-25T01:43:31.100Z,25.60
2018-08-25T01:44:12.062Z,25.60
2018-08-25T01:44:50.112Z,25.60
2018-08-25T01:45:28.605Z,25.70
2018-08-25T01:46:06.585Z,25.70
2018-08-25T01:46:44.538Z,25.70
2018-08-25T01:47:22.553Z,25.80
2018-08-25T01:48:00.527Z,25.80
2018-08-25T01:48:38.601Z,25.80
2018-08-25T01:49:16.549Z,25.80
2018-08-25T01:49:54.996Z,25.80
2018-08-25T01:50:32.910Z,25.80
2018-08-25T01:51:10.910Z,25.80
2018-08-25T01:51:48.893Z,25.60
2018-08-25T01:52:26.883Z,25.60
2018-08-25T01:53:04.756Z,25.60
2018-08-25T01:53:43.727Z,25.60
2018-08-25T01:54:22.761Z,25.60
2018-08-25T01:55:00.813Z,25.60
2018-08-25T01:55:39.754Z,25.70
2018-08-25T01:56:17.676Z,25.70
2018-08-25T01:56:55.744Z,25.70
2018-08-25T01:57:33.651Z,25.70
2018-08-25T01:58:12.364Z,25.80
2018-08-25T01:58:50.564Z,25.80
2018-08-25T01:59:29.576Z,25.80
2018-08-25T02:00:07.672Z,25.80
2018-08-25T02:00:45.628Z,25.60
2018-08-25T02:01:23.774Z,25.60
2018-08-25T02:02:01.748Z,25.50
2018-08-25T02:02:40.039Z,25.50
2018-08-25T02:03:17.999Z,25.50
2018-08-25T02:03:55.968Z,25.60
2018-08-25T02:04:33.977Z,25.60
2018-08-25T02:05:12.000Z,25.60
2018-08-25T02:05:49.848Z,25.70
2018-08-25T02:06:27.687Z,25.70
2018-08-25T02:07:07.198Z,25.70
2018-08-25T02:07:45.130Z,25.80
2018-08-25T02:08:23.047Z,25.80
2018-08-25T02:09:01.001Z,25.80
2018-08-25T02:09:40.032Z,25.90
2018-08-25T02:10:18.024Z,25.90
2018-08-25T02:10:55.952Z,25.90
2018-08-25T02:11:34.288Z,25.90
2018-08-25T02:12:12.181Z,25.90
2018-08-25T02:12:50.086Z,25.80
2018-08-25T02:13:27.925Z,25.80
2018-08-25T02:14:05.866Z,25.80
2018-08-25T02:14:43.796Z,25.70
2018-08-25T02:15:22.163Z,25.80
2018-08-25T02:16:01.545Z,25.80
2018-08-25T02:16:39.834Z,25.80
2018-08-25T02:17:17.733Z,25.80
2018-08-25T02:17:55.610Z,25.90
2018-08-25T02:18:33.597Z,25.90
2018-08-25T02:19:11.589Z,25.90
2018-08-25T02:19:49.517Z,25.90
2018-08-25T02:20:27.772Z,25.90
2018-08-25T02:21:05.669Z,26.00
2018-08-25T02:21:43.681Z,26.00
2018-08-25T02:22:21.587Z,26.00
2018-08-25T02:22:59.598Z,26.00
2018-08-25T02:23:37.547Z,26.10
2018-08-25T02:24:30.604Z,26.10
2018-08-25T02:25:08.814Z,26.10
2018-08-25T02:25:46.729Z,26.10
2018-08-25T02:26:24.739Z,26.10
2018-08-25T02:27:02.675Z,26.20
2018-08-25T02:27:40.549Z,26.20
2018-08-25T02:28:19.930Z,26.20
2018-08-25T02:28:58.235Z,26.20
2018-08-25T02:29:36.070Z,26.30
2018-08-25T02:30:13.950Z,26.30
2018-08-25T02:30:51.888Z,26.30
2018-08-25T02:31:29.890Z,26.30
2018-08-25T02:32:08.002Z,26.30
2018-08-25T02:32:46.373Z,26.40
2018-08-25T02:33:25.343Z,26.40
2018-08-25T02:34:03.369Z,26.40
2018-08-25T02:34:41.326Z,26.40
2018-08-25T02:35:19.337Z,26.40
2018-08-25T02:35:57.218Z,26.50
2018-08-25T02:36:35.166Z,26.50
2018-08-25T02:37:13.388Z,26.50
2018-08-25T02:37:52.007Z,26.50
2018-08-25T02:38:30.003Z,26.60
2018-08-25T02:39:11.177Z,26.60
2018-08-25T02:39:49.101Z,26.60
2018-08-25T02:40:27.078Z,26.70
2018-08-25T02:41:04.922Z,26.70
2018-08-25T02:41:43.676Z,26.70
2018-08-25T02:42:21.538Z,26.70
2018-08-25T02:42:59.513Z,26.80
2018-08-25T02:43:37.465Z,26.80
2018-08-25T02:44:15.445Z,26.80
2018-08-25T02:44:53.378Z,26.80
2018-08-25T02:45:31.242Z,26.70
2018-08-25T02:46:09.407Z,26.70
2018-08-25T02:46:47.346Z,26.70
2018-08-25T02:47:25.317Z,26.70
2018-08-25T02:48:03.257Z,26.70
2018-08-25T02:48:41.280Z,26.70
2018-08-25T02:49:19.168Z,26.80
2018-08-25T02:49:56.966Z,26.70
2018-08-25T02:50:37.137Z,26.70
2018-08-25T02:51:15.789Z,26.70
2018-08-25T02:51:54.305Z,26.70
2018-08-25T02:52:33.804Z,26.70
2018-08-25T02:53:12.813Z,26.80
2018-08-25T02:53:50.693Z,26.70
2018-08-25T02:54:29.663Z,26.80
2018-08-25T02:55:08.321Z,26.80
2018-08-25T02:55:46.447Z,26.80
2018-08-25T02:56:24.434Z,26.70
2018-08-25T02:57:03.021Z,26.70
2018-08-25T02:57:42.520Z,26.80
2018-08-25T02:58:21.027Z,26.80
2018-08-25T02:59:01.112Z,26.80
2018-08-25T02:59:40.868Z,26.80
2018-08-25T03:00:18.853Z,26.80
2018-08-25T03:00:56.813Z,26.80
2018-08-25T03:01:34.842Z,26.80
2018-08-25T03:02:12.817Z,26.80
2018-08-25T03:02:51.699Z,26.80
2018-08-25T03:03:30.683Z,26.80
2018-08-25T03:04:08.687Z,26.80
2018-08-25T03:04:46.584Z,26.80
2018-08-25T03:05:24.586Z,26.90
2018-08-25T03:06:02.518Z,26.90
2018-08-25T03:06:40.465Z,26.90
2018-08-25T03:07:18.371Z,26.90
2018-08-25T03:07:56.513Z,27.00
2018-08-25T03:08:34.475Z,27.00
2018-08-25T03:09:14.212Z,27.00
2018-08-25T03:09:52.126Z,27.00
2018-08-25T03:10:30.037Z,27.00
2018-08-25T03:11:07.964Z,27.00
2018-08-25T03:11:47.153Z,27.00
2018-08-25T03:12:26.172Z,27.00
2018-08-25T03:13:04.217Z,27.00
2018-08-25T03:13:42.102Z,27.00
2018-08-25T03:14:20.154Z,27.00
2018-08-25T03:14:58.131Z,27.00
2018-08-25T03:15:36.074Z,27.00
2018-08-25T03:16:15.008Z,27.00
2018-08-25T03:16:53.873Z,27.00
2018-08-25T03:17:31.776Z,27.00
2018-08-25T03:18:09.737Z,27.00
2018-08-25T03:18:47.811Z,27.00
2018-08-25T03:19:25.800Z,27.00
2018-08-25T03:20:03.825Z,27.00
2018-08-25T03:20:42.396Z,27.00
2018-08-25T03:21:20.291Z,27.10
2018-08-25T03:21:58.110Z,27.10
2018-08-25T03:22:36.043Z,27.00
2018-08-25T03:23:13.910Z,27.10
2018-08-25T03:23:51.891Z,27.10
2018-08-25T03:24:29.884Z,27.10
2018-08-25T03:25:08.595Z,27.10
2018-08-25T03:25:46.828Z,27.10
2018-08-25T03:26:24.752Z,27.10
2018-08-25T03:27:02.866Z,27.10
2018-08-25T03:27:40.799Z,27.20
2018-08-25T03:28:18.707Z,27.10
2018-08-25T03:28:56.652Z,27.20
2018-08-25T03:29:35.537Z,27.20
2018-08-25T03:30:13.621Z,27.20
2018-08-25T03:30:51.550Z,27.20
2018-08-25T03:31:29.416Z,27.20
2018-08-25T03:32:07.330Z,27.20
2018-08-25T03:32:45.218Z,27.20
2018-08-25T03:33:23.232Z,27.20
2018-08-25T03:34:01.814Z,27.20
2018-08-25T03:34:39.740Z,27.20
2018-08-25T03:35:17.759Z,27.20
2018-08-25T03:35:55.884Z,27.10
2018-08-25T03:36:33.934Z,27.20
2018-08-25T03:37:11.926Z,27.20
2018-08-25T03:37:50.315Z,27.20
2018-08-25T03:38:29.173Z,27.20
2018-08-25T03:39:09.829Z,27.30
2018-08-25T03:39:47.895Z,27.30
2018-08-25T03:40:25.936Z,27.30
2018-08-25T03:41:03.843Z,27.30
2018-08-25T03:41:41.957Z,27.30
2018-08-25T03:42:21.104Z,27.30
2018-08-25T03:42:59.501Z,27.30
2018-08-25T03:43:37.517Z,27.30
2018-08-25T03:44:16.348Z,27.30
2018-08-25T03:44:54.190Z,27.30
2018-08-25T03:45:32.190Z,27.30
2018-08-25T03:46:10.155Z,27.30
2018-08-25T03:46:49.084Z,27.30
2018-08-25T03:47:27.019Z,27.30
2018-08-25T03:48:05.028Z,27.30
2018-08-25T03:48:43.119Z,27.30
2018-08-25T03:49:21.173Z,27.40
2018-08-25T03:49:59.069Z,27.30
2018-08-25T03:50:36.879Z,27.40
2018-08-25T03:51:15.288Z,27.40
2018-08-25T03:51:54.320Z,27.40
2018-08-25T03:52:32.703Z,27.40
2018-08-25T03:53:10.610Z,27.40
2018-08-25T03:53:48.610Z,27.40
2018-08-25T03:54:26.520Z,27.50
2018-08-25T03:55:05.616Z,27.50
2018-08-25T03:55:43.852Z,27.50
2018-08-25T03:56:21.681Z,27.50
2018-08-25T03:56:59.670Z,27.50
2018-08-25T03:57:37.576Z,27.50
2018-08-25T03:58:16.364Z,27.50
2018-08-25T03:58:54.279Z,27.50
2018-08-25T03:59:32.342Z,27.50
2018-08-25T04:00:11.050Z,27.50
2018-08-25T04:00:48.924Z,27.50
2018-08-25T04:01:26.984Z,27.50
2018-08-25T04:02:04.832Z,27.50
2018-08-25T04:02:42.777Z,27.50
2018-08-25T04:03:20.758Z,27.60
2018-08-25T04:03:59.991Z,27.60
2018-08-25T04:04:39.105Z,27.60
2018-08-25T04:05:16.968Z,27.60
2018-08-25T04:05:54.890Z,27.60
2018-08-25T04:06:32.909Z,27.50
2018-08-25T04:07:11.029Z,27.60
2018-08-25T04:07:48.916Z,27.60
2018-08-25T04:08:27.586Z,27.60
2018-08-25T04:09:06.249Z,27.60
2018-08-25T04:09:44.252Z,27.60
2018-08-25T04:10:22.114Z,27.60
2018-08-25T04:10:59.949Z,27.60
2018-08-25T04:11:37.966Z,27.60
2018-08-25T04:12:16.907Z,27.60
2018-08-25T04:12:55.088Z,27.60
2018-08-25T04:13:33.022Z,27.60
2018-08-25T04:14:12.034Z,27.60
2018-08-25T04:14:50.152Z,27.60
2018-08-25T04:15:28.424Z,27.60
2018-08-25T04:16:06.379Z,27.60
2018-08-25T04:16:45.204Z,27.60
2018-08-25T04:17:23.732Z,27.60
2018-08-25T04:18:01.658Z,27.60
2018-08-25T04:18:39.672Z,27.60
2018-08-25T04:19:20.408Z,27.60
2018-08-25T04:19:58.303Z,27.50
2018-08-25T04:20:38.313Z,27.40
2018-08-25T04:21:16.229Z,27.30
2018-08-25T04:21:54.784Z,27.10
2018-08-25T04:22:32.667Z,26.90
2018-08-25T04:23:10.659Z,26.80
2018-08-25T04:23:48.563Z,26.60
2018-08-25T04:24:26.566Z,26.40
2018-08-25T04:25:04.540Z,26.30
2018-08-25T04:25:42.732Z,26.10
2018-08-25T04:26:21.366Z,26.00
2018-08-25T04:27:00.122Z,25.90
2018-08-25T04:27:37.984Z,25.80
2018-08-25T04:31:17.478Z,25.80
2018-08-25T04:31:55.352Z,26.10
2018-08-25T04:32:33.301Z,26.20
2018-08-25T04:33:11.201Z,26.30
2018-08-25T04:33:49.090Z,26.40
2018-08-25T04:34:26.951Z,26.50
2018-08-25T04:35:04.798Z,26.50
2018-08-25T04:35:43.338Z,26.60
2018-08-25T04:36:21.293Z,26.70
2018-08-25T04:36:59.183Z,26.70
2018-08-25T04:37:37.073Z,26.80
2018-08-25T04:38:15.045Z,26.90
2018-08-25T04:38:52.919Z,26.90
2018-08-25T04:39:31.552Z,27.00
2018-08-25T04:40:10.224Z,27.00
2018-08-25T04:40:48.047Z,27.10
2018-08-25T04:41:26.063Z,27.10
2018-08-25T04:42:04.109Z,27.10
2018-08-25T04:42:42.093Z,27.20
2018-08-25T04:43:20.111Z,27.20
2018-08-25T04:43:58.248Z,27.20
2018-08-25T04:44:36.452Z,27.30
2018-08-25T04:45:14.505Z,27.30
2018-08-25T04:45:52.403Z,27.30
2018-08-25T04:46:30.480Z,27.30
2018-08-25T04:47:08.553Z,27.30
2018-08-25T04:47:46.458Z,27.30
2018-08-25T04:48:25.075Z,27.40
2018-08-25T04:49:03.386Z,27.40
2018-08-25T04:49:41.378Z,27.40
2018-08-25T04:50:19.590Z,27.40
2018-08-25T04:50:57.607Z,27.40
2018-08-25T04:51:35.730Z,27.40
2018-08-25T04:52:13.814Z,27.50
2018-08-25T04:52:52.224Z,27.40
2018-08-25T04:53:30.596Z,27.50
2018-08-25T04:54:08.486Z,27.50
2018-08-25T04:54:46.567Z,27.50
2018-08-25T04:55:24.466Z,27.50
2018-08-25T04:56:02.331Z,27.50
2018-08-25T04:56:40.340Z,27.50
2018-08-25T04:57:18.610Z,27.50
2018-08-25T04:57:56.657Z,27.50
2018-08-25T04:58:34.587Z,27.60
2018-08-25T04:59:12.611Z,27.60
2018-08-25T04:59:50.594Z,27.60
2018-08-25T05:00:28.635Z,27.60
2018-08-25T05:01:06.561Z,27.60
2018-08-25T05:01:45.188Z,27.60
2018-08-25T05:02:23.097Z,27.60
2018-08-25T05:03:01.067Z,27.60
2018-08-25T05:03:38.998Z,27.60
2018-08-25T05:04:16.908Z,27.60
2018-08-25T05:04:54.846Z,27.60
2018-08-25T05:05:32.734Z,27.60
2018-08-25T05:06:11.506Z,27.60
2018-08-25T05:06:49.366Z,27.60
2018-08-25T05:07:27.228Z,27.60
2018-08-25T05:08:05.122Z,27.60
2018-08-25T05:08:43.125Z,27.70
2018-08-25T05:09:21.160Z,27.70
2018-08-25T05:09:59.042Z,27.60
2018-08-25T05:10:37.178Z,27.60
2018-08-25T05:11:15.129Z,27.70
2018-08-25T05:11:53.049Z,27.70
2018-08-25T05:12:30.915Z,27.70
2018-08-25T05:13:08.840Z,27.60
2018-08-25T05:13:46.709Z,27.60
2018-08-25T05:14:25.155Z,27.60
2018-08-25T05:15:03.159Z,27.70
2018-08-25T05:15:41.228Z,27.70
2018-08-25T05:16:19.166Z,27.70
2018-08-25T05:16:56.993Z,27.70
2018-08-25T05:17:35.000Z,27.70
2018-08-25T05:18:13.142Z,27.70
2018-08-25T05:18:51.510Z,27.70
2018-08-25T05:19:30.023Z,27.70
2018-08-25T05:20:08.025Z,27.70
2018-08-25T05:20:46.060Z,27.80
2018-08-25T05:21:24.039Z,27.80
2018-08-25T05:22:01.926Z,27.80
2018-08-25T05:22:45.882Z,27.80
2018-08-25T05:23:23.907Z,27.80
2018-08-25T05:24:01.896Z,27.80
2018-08-25T05:24:39.799Z,27.80
2018-08-25T05:25:17.662Z,27.80
2018-08-25T05:25:55.594Z,27.80
2018-08-25T05:26:33.665Z,27.80
2018-08-25T05:27:11.664Z,27.90
2018-08-25T05:27:50.951Z,27.90
2018-08-25T05:28:28.904Z,27.90
2018-08-25T05:29:06.820Z,27.90
2018-08-25T05:29:44.886Z,27.90
2018-08-25T05:30:22.871Z,27.90
2018-08-25T05:31:00.774Z,27.90
2018-08-25T05:31:40.746Z,27.90
2018-08-25T05:32:19.988Z,27.90
2018-08-25T05:32:57.983Z,27.90
2018-08-25T05:33:35.987Z,27.90
2018-08-25T05:34:13.859Z,27.90
2018-08-25T05:34:51.742Z,27.90
2018-08-25T05:35:29.546Z,27.90
2018-08-25T05:36:07.963Z,27.90
2018-08-25T05:36:46.188Z,27.90
2018-08-25T05:37:24.851Z,27.90
2018-08-25T05:38:02.719Z,27.90
2018-08-25T05:38:40.854Z,28.00
2018-08-25T05:39:18.885Z,27.90
2018-08-25T05:39:56.837Z,28.00
2018-08-25T05:40:36.366Z,27.90
2018-08-25T05:41:14.509Z,28.00
2018-08-25T05:41:52.530Z,27.90
2018-08-25T05:42:30.464Z,27.90
2018-08-25T05:43:08.292Z,28.00
2018-08-25T05:43:46.322Z,28.00
2018-08-25T05:44:24.206Z,28.00
2018-08-25T05:45:04.110Z,28.00
2018-08-25T05:45:42.015Z,28.00
2018-08-25T05:46:20.158Z,28.00
2018-08-25T05:46:58.075Z,28.00
2018-08-25T05:47:35.926Z,28.00
2018-08-25T05:48:13.875Z,28.00
2018-08-25T05:48:51.854Z,28.00
2018-08-25T05:49:29.761Z,28.00
2018-08-25T05:50:08.617Z,28.00
2018-08-25T05:50:46.576Z,28.00
2018-08-25T05:51:25.313Z,28.00
2018-08-25T05:52:04.207Z,28.00
2018-08-25T05:52:42.209Z,28.00
2018-08-25T05:53:20.080Z,28.00
2018-08-25T05:53:58.011Z,28.10
2018-08-25T05:54:37.739Z,28.10
2018-08-25T05:55:15.730Z,28.10
2018-08-25T05:55:53.728Z,28.00
2018-08-25T05:56:31.699Z,28.00
2018-08-25T05:57:09.869Z,28.10
2018-08-25T05:57:47.865Z,28.10
2018-08-25T05:58:25.798Z,28.10
2018-08-25T05:59:03.622Z,28.10
2018-08-25T05:59:41.568Z,28.10
2018-08-25T06:00:19.420Z,28.10
2018-08-25T06:00:57.527Z,28.10
2018-08-25T06:01:35.395Z,28.20
2018-08-25T06:02:14.279Z,28.10
2018-08-25T06:02:52.867Z,28.10
2018-08-25T06:03:30.729Z,28.20
2018-08-25T06:04:08.897Z,28.10
2018-08-25T06:04:46.833Z,28.20
2018-08-25T06:05:24.887Z,28.20
2018-08-25T06:06:03.663Z,28.10
2018-08-25T06:06:42.104Z,28.20
2018-08-25T06:07:22.036Z,28.20
2018-08-25T06:07:59.961Z,28.20
2018-08-25T06:08:38.135Z,28.20
2018-08-25T06:09:16.013Z,28.20
2018-08-25T06:09:53.868Z,28.20
2018-08-25T06:10:31.837Z,28.20
2018-08-25T06:11:10.406Z,28.10
2018-08-25T06:11:48.323Z,28.20
2018-08-25T06:12:26.338Z,28.20
2018-08-25T06:13:05.343Z,28.10
2018-08-25T06:13:43.351Z,28.10
2018-08-25T06:14:21.184Z,28.10
2018-08-25T06:14:59.155Z,28.10
2018-08-25T06:15:37.737Z,28.20
2018-08-25T06:16:16.437Z,28.20
2018-08-25T06:16:54.304Z,28.20
2018-08-25T06:17:32.300Z,28.20
2018-08-25T06:18:10.585Z,28.20
2018-08-25T06:18:48.471Z,28.20
2018-08-25T06:19:26.450Z,28.20
2018-08-25T06:20:04.897Z,28.20
2018-08-25T06:20:42.860Z,28.20
2018-08-25T06:21:20.814Z,28.20
2018-08-25T06:21:58.892Z,28.20
2018-08-25T06:22:37.834Z,28.20
2018-08-25T06:23:15.882Z,28.20
2018-08-25T06:23:54.203Z,28.30
2018-08-25T06:24:32.541Z,28.20
2018-08-25T06:25:11.561Z,28.20
2018-08-25T06:25:51.169Z,28.30
2018-08-25T06:26:29.159Z,28.30
2018-08-25T06:27:07.050Z,28.30
2018-08-25T06:27:44.965Z,28.30
2018-08-25T06:28:23.654Z,28.30
2018-08-25T06:29:02.661Z,28.30
2018-08-25T06:29:41.546Z,28.30
2018-08-25T06:30:19.435Z,28.30
2018-08-25T06:30:57.316Z,28.30
2018-08-25T06:31:35.424Z,28.30
2018-08-25T06:32:13.366Z,28.30
2018-08-25T06:32:52.012Z,28.30
2018-08-25T06:33:29.870Z,28.40
2018-08-25T06:34:07.889Z,28.40
2018-08-25T06:34:45.833Z,28.30
2018-08-25T06:35:23.750Z,28.40
2018-08-25T06:36:01.809Z,28.30
2018-08-25T06:36:39.930Z,28.30
2018-08-25T06:37:19.172Z,28.40
2018-08-25T06:37:57.171Z,28.40
2018-08-25T06:38:35.134Z,28.40
2018-08-25T06:39:13.289Z,28.40
2018-08-25T06:39:51.236Z,28.40
2018-08-25T06:40:29.282Z,28.40
2018-08-25T06:41:07.100Z,28.40
2018-08-25T06:41:45.493Z,28.40
2018-08-25T06:42:23.272Z,28.40
2018-08-25T06:43:01.189Z,28.40
2018-08-25T06:43:39.181Z,28.40
2018-08-25T06:44:17.192Z,28.40
2018-08-25T06:44:55.109Z,28.40
2018-08-25T06:45:34.504Z,28.40
2018-08-25T06:46:13.194Z,28.40
2018-08-25T06:46:51.119Z,28.40
2018-08-25T06:47:29.077Z,28.40
2018-08-25T06:48:07.028Z,28.40
2018-08-25T06:48:46.057Z,28.40
2018-08-25T06:49:24.011Z,28.40
2018-08-25T06:50:02.457Z,28.40
2018-08-25T06:50:42.320Z,28.40
2018-08-25T06:51:20.233Z,28.40
2018-08-25T06:51:58.199Z,28.40
2018-08-25T06:52:36.101Z,28.40
2018-08-25T06:53:13.971Z,28.40
2018-08-25T06:53:51.871Z,28.40
2018-08-25T06:54:30.238Z,28.40
2018-08-25T06:55:09.613Z,28.40
2018-08-25T06:55:47.495Z,28.50
2018-08-25T06:56:25.427Z,28.50
2018-08-25T06:57:03.362Z,28.50
2018-08-25T06:57:41.430Z,28.40
2018-08-25T06:58:19.350Z,28.50
2018-08-25T06:58:57.647Z,28.50
2018-08-25T06:59:35.491Z,28.50
2018-08-25T07:00:13.513Z,28.50
2018-08-25T07:00:51.543Z,28.40
2018-08-25T07:01:29.552Z,28.40
2018-08-25T07:02:08.290Z,28.50
2018-08-25T07:02:46.272Z,28.40
2018-08-25T07:03:24.859Z,28.40
2018-08-25T07:04:02.825Z,28.50
2018-08-25T07:04:40.596Z,28.40
2018-08-25T07:05:18.663Z,28.50
2018-08-25T07:05:57.542Z,28.50
2018-08-25T07:06:35.536Z,28.50
2018-08-25T07:07:13.562Z,28.50
2018-08-25T07:07:52.573Z,28.50
2018-08-25T07:08:30.391Z,28.50
2018-08-25T07:09:11.539Z,28.50
2018-08-25T07:09:49.595Z,28.50
2018-08-25T07:10:27.471Z,28.50
2018-08-25T07:11:05.252Z,28.50
2018-08-25T07:11:59.097Z,28.50
2018-08-25T07:12:37.062Z,28.50
2018-08-25T07:13:14.924Z,28.50
2018-08-25T07:13:53.327Z,28.50
2018-08-25T07:14:31.288Z,28.50
2018-08-25T07:15:09.692Z,28.50
2018-08-25T07:15:47.858Z,28.50
2018-08-25T07:16:26.262Z,28.50
2018-08-25T07:17:04.269Z,28.50
2018-08-25T07:17:42.260Z,28.50
2018-08-25T07:18:20.271Z,28.50
2018-08-25T07:18:58.313Z,28.50
2018-08-25T07:19:36.381Z,28.60
2018-08-25T07:20:14.418Z,28.50
2018-08-25T07:20:52.967Z,28.50
2018-08-25T07:21:31.404Z,28.50
2018-08-25T07:22:09.297Z,28.60
2018-08-25T07:22:48.070Z,28.50
2018-08-25T07:23:25.956Z,28.60
2018-08-25T07:24:04.085Z,28.60
2018-08-25T07:24:42.558Z,28.50
2018-08-25T07:25:20.840Z,28.50
2018-08-25T07:25:58.864Z,28.50
2018-08-25T07:26:36.928Z,28.60
2018-08-25T07:27:14.795Z,28.50
2018-08-25T07:27:52.716Z,28.60
2018-08-25T07:28:30.590Z,28.60
2018-08-25T07:29:10.209Z,28.60
2018-08-25T07:29:48.461Z,28.60
2018-08-25T07:30:26.385Z,28.60
2018-08-25T07:31:04.274Z,28.60
2018-08-25T07:31:42.332Z,28.60
2018-08-25T07:32:20.326Z,28.60
2018-08-25T07:32:58.281Z,28.60
2018-08-25T07:33:36.767Z,28.60
2018-08-25T07:34:14.917Z,28.60
2018-08-25T07:34:52.790Z,28.60
2018-08-25T07:35:30.733Z,28.60
2018-08-25T07:36:09.980Z,28.60
2018-08-25T07:36:47.937Z,28.70
2018-08-25T07:37:25.871Z,28.60
2018-08-25T07:38:03.920Z,28.60
2018-08-25T07:38:42.422Z,28.60
2018-08-25T07:39:20.334Z,28.60
2018-08-25T07:39:58.236Z,28.60
2018-08-25T07:40:36.139Z,28.60
2018-08-25T07:41:14.044Z,28.60
2018-08-25T07:41:51.916Z,28.70
2018-08-25T07:42:33.009Z,28.70
2018-08-25T07:43:10.888Z,28.60
2018-08-25T07:43:48.907Z,28.70
2018-08-25T07:44:26.752Z,28.60
2018-08-25T07:45:04.645Z,28.70
2018-08-25T07:45:42.559Z,28.70
2018-08-25T07:46:20.491Z,28.60
2018-08-25T07:46:58.809Z,28.60
2018-08-25T07:47:36.672Z,28.70
2018-08-25T07:48:14.564Z,28.60
2018-08-25T07:48:53.529Z,28.70
2018-08-25T07:49:31.526Z,28.70
2018-08-25T07:50:10.326Z,28.70
2018-08-25T07:50:48.752Z,28.70
2018-08-25T07:51:27.176Z,28.70
2018-08-25T07:52:05.064Z,28.70
2018-08-25T07:52:42.930Z,28.70
2018-08-25T07:53:20.952Z,28.70
2018-08-25T07:53:58.922Z,28.70
2018-08-25T07:54:36.892Z,28.70
2018-08-25T07:55:15.373Z,28.70
2018-08-25T07:55:53.725Z,28.70
2018-08-25T07:56:31.690Z,28.70
2018-08-25T07:57:10.522Z,28.70
2018-08-25T07:57:48.449Z,28.70
2018-08-25T07:58:26.513Z,28.80
2018-08-25T07:59:04.571Z,28.80
2018-08-25T07:59:43.045Z,28.70
2018-08-25T08:00:21.513Z,28.70
2018-08-25T08:00:59.520Z,28.70
2018-08-25T08:01:37.450Z,28.80
2018-08-25T08:02:16.109Z,28.70
2018-08-25T08:02:53.988Z,28.80
2018-08-25T08:03:31.853Z,28.80
2018-08-25T08:04:10.083Z,28.80
2018-08-25T08:04:48.366Z,28.80
2018-08-25T08:05:26.425Z,28.80
2018-08-25T08:06:04.385Z,28.80
2018-08-25T08:06:42.296Z,28.80
2018-08-25T08:07:20.383Z,28.80
2018-08-25T08:07:58.354Z,28.80
2018-08-25T08:08:38.253Z,28.80
2018-08-25T08:09:16.244Z,28.80
2018-08-25T08:09:54.291Z,28.80
2018-08-25T08:10:32.205Z,28.80
2018-08-25T08:11:10.105Z,28.80
2018-08-25T08:11:48.043Z,28.80
2018-08-25T08:12:26.026Z,28.80
2018-08-25T08:13:04.535Z,28.80
2018-08-25T08:13:43.448Z,28.80
2018-08-25T08:14:21.464Z,28.80
2018-08-25T08:14:59.375Z,28.80
2018-08-25T08:15:37.296Z,28.80
2018-08-25T08:16:16.071Z,28.80